createdAt,value
2023-05-17T00:00:14.416Z,22.65
2023-05-17T00:02:41.297Z,22.63
2023-05-17T00:05:08.606Z,22.62
2023-05-17T00:07:35.410Z,22.61
2023-05-17T00:10:02.158Z,22.62
2023-05-17T00:12:29.155Z,22.60
2023-05-17T00:14:55.913Z,22.59
2023-05-17T00:17:22.784Z,22.58
2023-05-17T00:19:49.575Z,22.57
2023-05-17T00:22:16.362Z,22.56
2023-05-17T00:24:43.127Z,22.56
2023-05-17T00:27:10.332Z,22.54
2023-05-17T00:29:37.168Z,22.54
2023-05-17T00:32:04.209Z,22.53
2023-05-17T00:34:31.062Z,22.53
2023-05-17T00:36:57.905Z,22.54
2023-05-17T00:39:24.729Z,22.50
2023-05-17T00:41:51.646Z,22.49
2023-05-17T00:44:18.428Z,22.48
2023-05-17T00:46:46.947Z,22.46
2023-05-17T00:49:13.773Z,22.45
2023-05-17T00:51:40.991Z,22.45
2023-05-17T00:54:08.051Z,22.43
2023-05-17T00:56:34.785Z,22.42
2023-05-17T00:59:02.359Z,22.40
2023-05-17T01:01:29.311Z,22.39
2023-05-17T01:03:56.609Z,22.37
2023-05-17T01:06:24.274Z,22.35
2023-05-17T01:08:51.760Z,22.33
2023-05-17T01:11:21.566Z,22.31
2023-05-17T01:13:55.726Z,22.30
2023-05-17T01:16:26.182Z,22.29
2023-05-17T01:18:57.810Z,22.28
2023-05-17T01:21:27.867Z,22.26
2023-05-17T01:24:00.251Z,22.24
2023-05-17T01:26:28.414Z,22.22
2023-05-17T01:28:55.353Z,22.22
2023-05-17T01:31:22.821Z,22.21
2023-05-17T01:33:49.858Z,22.20
2023-05-17T01:36:16.680Z,22.18
2023-05-17T01:38:43.485Z,22.19
2023-05-17T01:41:16.343Z,22.17
2023-05-17T01:43:43.551Z,22.15
2023-05-17T01:46:13.949Z,22.16
2023-05-17T01:48:43.446Z,22.14
2023-05-17T01:51:12.189Z,22.13
2023-05-17T01:53:43.195Z,22.11
2023-05-17T01:56:15.377Z,22.10
2023-05-17T01:58:45.182Z,22.09
2023-05-17T02:01:13.648Z,22.08
2023-05-17T02:03:40.512Z,22.05
2023-05-17T02:06:07.540Z,22.05
2023-05-17T02:08:34.313Z,22.03
2023-05-17T02:11:01.089Z,22.02
2023-05-17T02:13:27.938Z,22.02
2023-05-17T02:15:54.696Z,21.99
2023-05-17T02:18:22.089Z,21.99
2023-05-17T02:20:49.025Z,21.97
2023-05-17T02:23:16.367Z,21.98
2023-05-17T02:25:43.423Z,21.96
2023-05-17T02:28:11.121Z,21.95
2023-05-17T02:30:41.506Z,21.94
2023-05-17T02:33:08.598Z,21.93
2023-05-17T02:35:35.732Z,21.91
2023-05-17T02:38:02.549Z,21.90
2023-05-17T02:40:29.419Z,21.88
2023-05-17T02:42:56.171Z,21.88
2023-05-17T02:45:22.978Z,21.87
2023-05-17T02:47:49.754Z,21.84
2023-05-17T02:50:16.529Z,21.84
2023-05-17T02:52:43.449Z,21.82
2023-05-17T02:55:10.490Z,21.82
2023-05-17T02:57:37.294Z,21.81
2023-05-17T03:00:04.397Z,21.80
2023-05-17T03:02:31.538Z,21.79
2023-05-17T03:04:58.839Z,21.78
2023-05-17T03:07:25.662Z,21.79
2023-05-17T03:09:52.434Z,21.78
2023-05-17T03:12:19.375Z,21.76
2023-05-17T03:14:46.323Z,21.74
2023-05-17T03:17:13.059Z,21.74
2023-05-17T03:19:39.906Z,21.74
2023-05-17T03:22:06.780Z,21.73
2023-05-17T03:24:33.579Z,21.72
2023-05-17T03:27:00.497Z,21.70
2023-05-17T03:29:27.251Z,21.68
2023-05-17T03:31:54.020Z,21.71
2023-05-17T03:34:20.853Z,21.69
2023-05-17T03:36:47.598Z,21.66
2023-05-17T03:39:14.571Z,21.66
2023-05-17T03:41:42.338Z,21.63
2023-05-17T03:44:09.180Z,21.63
2023-05-17T03:46:35.922Z,21.62
2023-05-17T03:49:02.896Z,21.60
2023-05-17T03:51:30.020Z,21.60
2023-05-17T03:53:58.664Z,21.58
2023-05-17T03:56:25.513Z,21.57
2023-05-17T03:58:52.447Z,21.58
2023-05-17T04:01:20.567Z,21.56
2023-05-17T04:03:47.665Z,21.55
2023-05-17T04:06:14.997Z,21.55
2023-05-17T04:08:42.056Z,21.53
2023-05-17T04:11:11.943Z,21.52
2023-05-17T04:13:38.741Z,21.52
2023-05-17T04:16:05.930Z,21.51
2023-05-17T04:18:35.158Z,21.51
2023-05-17T04:21:02.233Z,21.49
2023-05-17T04:23:29.192Z,21.48
2023-05-17T04:25:57.077Z,21.48
2023-05-17T04:28:24.252Z,21.47
2023-05-17T04:30:51.169Z,21.49
2023-05-17T04:33:18.301Z,21.47
2023-05-17T04:35:46.031Z,21.48
2023-05-17T04:38:12.812Z,21.46
2023-05-17T04:40:39.840Z,21.44
2023-05-17T04:43:06.705Z,21.43
2023-05-17T04:45:34.179Z,21.42
2023-05-17T04:48:01.733Z,21.42
2023-05-17T04:50:28.642Z,21.40
2023-05-17T04:52:55.576Z,21.39
2023-05-17T04:55:22.479Z,21.39
2023-05-17T04:57:49.256Z,21.37
2023-05-17T05:00:16.427Z,21.39
2023-05-17T05:02:43.191Z,21.36
2023-05-17T05:05:11.064Z,21.35
2023-05-17T05:07:40.064Z,21.34
2023-05-17T05:10:07.382Z,21.32
2023-05-17T05:12:34.136Z,21.33
2023-05-17T05:15:01.334Z,21.32
2023-05-17T05:17:29.857Z,21.30
2023-05-17T05:19:57.334Z,21.30
2023-05-17T05:22:24.134Z,21.29
2023-05-17T05:24:52.124Z,21.27
2023-05-17T05:27:18.894Z,21.29
2023-05-17T05:29:46.221Z,21.28
2023-05-17T05:32:13.040Z,21.26
2023-05-17T05:34:40.201Z,21.26
2023-05-17T05:37:07.004Z,21.25
2023-05-17T05:39:33.810Z,21.22
2023-05-17T05:42:00.770Z,21.23
2023-05-17T05:44:27.617Z,21.21
2023-05-17T05:46:54.482Z,21.22
2023-05-17T05:49:21.277Z,21.19
2023-05-17T05:51:48.105Z,21.18
2023-05-17T05:54:15.159Z,21.18
2023-05-17T05:56:42.036Z,21.16
2023-05-17T05:59:08.944Z,21.15
2023-05-17T06:01:35.981Z,21.19
2023-05-17T06:04:02.825Z,21.17
2023-05-17T06:06:29.876Z,21.18
2023-05-17T06:08:59.478Z,21.15
2023-05-17T06:11:26.815Z,21.14
2023-05-17T06:13:54.916Z,21.15
2023-05-17T06:16:21.840Z,21.11
2023-05-17T06:18:51.403Z,21.10
2023-05-17T06:21:18.770Z,21.07
2023-05-17T06:23:45.767Z,20.78
2023-05-17T06:26:12.662Z,20.45
2023-05-17T06:28:39.686Z,20.24
2023-05-17T06:31:06.641Z,19.99
2023-05-17T06:33:33.572Z,19.95
2023-05-17T06:38:27.594Z,19.50
2023-05-17T06:40:54.914Z,19.42
2023-05-17T06:43:23.359Z,19.39
2023-05-17T06:45:50.478Z,19.23
2023-05-17T06:48:17.437Z,19.26
2023-05-17T06:50:44.455Z,19.07
2023-05-17T06:53:11.453Z,18.91
2023-05-17T06:55:38.552Z,18.90
2023-05-17T06:58:05.421Z,18.83
2023-05-17T07:00:32.771Z,18.76
2023-05-17T07:03:00.247Z,18.75
2023-05-17T07:05:29.503Z,18.78
2023-05-17T07:07:57.542Z,18.81
2023-05-17T07:10:24.447Z,18.82
2023-05-17T07:12:51.688Z,18.88
2023-05-17T07:15:18.700Z,19.13
2023-05-17T07:17:45.597Z,19.23
2023-05-17T07:20:13.434Z,19.30
2023-05-17T07:22:40.901Z,19.35
2023-05-17T07:25:08.670Z,19.44
2023-05-17T07:27:36.170Z,19.47
2023-05-17T07:30:04.391Z,19.53
2023-05-17T07:32:31.412Z,19.59
2023-05-17T07:34:58.538Z,19.58
2023-05-17T07:37:25.709Z,19.59
2023-05-17T07:39:52.915Z,19.65
2023-05-17T07:42:20.120Z,19.68
2023-05-17T07:44:49.042Z,19.66
2023-05-17T07:47:16.598Z,19.71
2023-05-17T07:49:44.644Z,19.74
2023-05-17T07:52:12.044Z,19.76
2023-05-17T07:54:39.092Z,19.74
2023-05-17T07:57:08.165Z,19.77
2023-05-17T07:59:35.256Z,19.81
2023-05-17T08:02:02.140Z,19.81
2023-05-17T08:04:29.811Z,19.82
2023-05-17T08:06:56.851Z,19.83
2023-05-17T08:09:23.854Z,19.85
2023-05-17T08:11:51.585Z,19.86
2023-05-17T08:14:24.877Z,19.86
2023-05-17T08:16:52.393Z,19.86
2023-05-17T08:19:19.443Z,19.86
2023-05-17T08:21:46.588Z,19.87
2023-05-17T08:24:25.389Z,19.86
2023-05-17T08:26:52.389Z,19.87
2023-05-17T08:29:19.322Z,19.85
2023-05-17T08:31:46.479Z,19.84
2023-05-17T08:34:13.778Z,19.81
2023-05-17T08:36:40.818Z,19.83
2023-05-17T08:39:08.847Z,19.83
2023-05-17T08:41:37.108Z,19.83
2023-05-17T08:44:09.573Z,19.86
2023-05-17T08:46:38.788Z,19.85
2023-05-17T08:49:06.697Z,19.86
2023-05-17T08:51:33.991Z,19.88
2023-05-17T08:54:32.529Z,19.89
2023-05-17T08:57:00.463Z,19.89
2023-05-17T08:59:27.712Z,19.87
2023-05-17T09:01:55.268Z,19.90
2023-05-17T09:04:41.102Z,19.93
2023-05-17T09:07:08.088Z,19.94
2023-05-17T09:09:35.338Z,19.94
2023-05-17T09:12:04.677Z,19.97
2023-05-17T09:14:39.914Z,19.98
2023-05-17T09:17:07.341Z,20.01
2023-05-17T09:19:34.613Z,20.03
2023-05-17T09:22:02.925Z,20.06
2023-05-17T09:24:36.618Z,20.07
2023-05-17T09:27:10.209Z,20.07
2023-05-17T09:29:39.567Z,20.08
2023-05-17T09:32:09.637Z,20.09
2023-05-17T09:34:43.043Z,20.14
2023-05-17T09:39:56.534Z,20.18
2023-05-17T09:42:26.677Z,20.19
2023-05-17T09:44:57.901Z,20.22
2023-05-17T09:47:26.016Z,20.23
2023-05-17T09:49:53.301Z,20.26
2023-05-17T09:52:21.589Z,20.29
2023-05-17T09:54:52.801Z,20.30
2023-05-17T09:57:19.699Z,20.32
2023-05-17T09:59:47.325Z,20.34
2023-05-17T10:02:20.132Z,20.37
2023-05-17T10:04:49.670Z,20.39
2023-05-17T10:07:20.001Z,20.43
2023-05-17T10:09:47.788Z,20.42
2023-05-17T10:12:17.584Z,20.43
2023-05-17T10:14:45.274Z,20.45
2023-05-17T10:17:13.151Z,20.45
2023-05-17T10:19:40.341Z,20.47
2023-05-17T10:22:21.588Z,20.51
2023-05-17T10:24:51.740Z,20.51
2023-05-17T10:27:19.164Z,20.52
2023-05-17T10:29:49.879Z,20.57
2023-05-17T10:32:19.667Z,20.57
2023-05-17T10:34:54.476Z,20.59
2023-05-17T10:37:29.603Z,20.62
2023-05-17T10:39:57.376Z,20.62
2023-05-17T10:42:25.275Z,20.64
2023-05-17T10:44:53.744Z,20.62
2023-05-17T10:47:20.715Z,20.59
2023-05-17T10:49:48.484Z,20.59
2023-05-17T10:52:16.916Z,20.58
2023-05-17T10:54:45.212Z,20.59
2023-05-17T10:57:19.862Z,20.62
2023-05-17T10:59:49.859Z,20.67
2023-05-17T11:02:23.850Z,20.69
2023-05-17T11:04:54.233Z,20.70
2023-05-17T11:07:22.420Z,20.73
2023-05-17T11:09:52.705Z,20.69
2023-05-17T11:12:22.685Z,20.68
2023-05-17T11:17:27.016Z,20.69
2023-05-17T11:19:55.588Z,20.67
2023-05-17T11:22:24.512Z,20.67
2023-05-17T11:24:53.087Z,20.67
2023-05-17T11:27:20.879Z,20.65
2023-05-17T11:29:48.767Z,20.65
2023-05-17T11:32:16.044Z,20.64
2023-05-17T11:34:43.014Z,20.64
2023-05-17T11:37:12.173Z,20.64
2023-05-17T11:39:58.979Z,20.62
2023-05-17T11:42:26.584Z,20.63
2023-05-17T11:44:56.862Z,20.60
2023-05-17T11:47:23.888Z,20.61
2023-05-17T11:49:54.313Z,20.58
2023-05-17T11:52:22.868Z,20.60
2023-05-17T11:54:50.456Z,20.58
2023-05-17T11:57:18.459Z,20.58
2023-05-17T11:59:45.339Z,20.56
2023-05-17T12:02:26.265Z,20.59
2023-05-17T12:04:53.286Z,20.56
2023-05-17T12:07:20.447Z,20.57
2023-05-17T12:09:48.129Z,20.57
2023-05-17T12:12:15.872Z,20.58
2023-05-17T12:14:44.720Z,20.56
2023-05-17T12:17:13.683Z,20.56
2023-05-17T12:19:40.887Z,20.57
2023-05-17T12:22:08.979Z,20.58
2023-05-17T12:24:38.073Z,20.60
2023-05-17T12:27:05.099Z,20.58
2023-05-17T12:29:32.245Z,20.59
2023-05-17T12:31:59.941Z,20.57
2023-05-17T12:34:27.173Z,20.58
2023-05-17T12:36:54.556Z,20.57
2023-05-17T12:39:24.955Z,20.58
2023-05-17T12:41:52.689Z,20.58
2023-05-17T12:44:35.458Z,20.62
2023-05-17T12:47:03.601Z,20.60
2023-05-17T12:49:30.523Z,20.63
2023-05-17T12:52:04.001Z,20.61
2023-05-17T12:54:31.078Z,20.61
2023-05-17T12:56:58.111Z,20.59
2023-05-17T12:59:25.956Z,20.59
2023-05-17T13:02:06.778Z,20.59
2023-05-17T13:04:38.369Z,20.57
2023-05-17T13:07:05.369Z,20.58
2023-05-17T13:09:32.985Z,20.60
2023-05-17T13:12:01.079Z,20.60
2023-05-17T13:14:33.852Z,20.58
2023-05-17T13:19:26.915Z,20.54
2023-05-17T13:21:53.500Z,20.52
2023-05-17T13:24:20.075Z,20.55
2023-05-17T13:26:46.655Z,20.55
2023-05-17T13:29:13.283Z,20.53
2023-05-17T13:31:41.800Z,20.55
2023-05-17T13:34:08.386Z,20.55
2023-05-17T13:36:34.992Z,20.53
2023-05-17T13:39:02.240Z,20.53
2023-05-17T13:41:28.840Z,20.54
2023-05-17T13:46:24.001Z,20.55
2023-05-17T13:48:50.644Z,20.56
2023-05-17T13:51:17.317Z,20.57
2023-05-17T13:53:44.785Z,20.57
2023-05-17T13:56:11.518Z,20.57
2023-05-17T13:58:38.063Z,20.55
2023-05-17T14:01:04.795Z,20.56
2023-05-17T14:03:31.981Z,20.59
2023-05-17T14:05:58.655Z,20.60
2023-05-17T14:08:25.290Z,20.60
2023-05-17T14:10:51.927Z,20.63
2023-05-17T14:15:44.776Z,20.61
2023-05-17T14:18:11.460Z,20.60
2023-05-17T14:20:38.099Z,20.62
2023-05-17T14:23:04.616Z,20.62
2023-05-17T14:25:31.181Z,20.65
2023-05-17T14:30:33.122Z,20.67
2023-05-17T14:32:59.838Z,20.69
2023-05-17T14:35:26.386Z,20.73
2023-05-17T14:37:53.074Z,20.78
2023-05-17T14:40:19.592Z,20.86
2023-05-17T14:42:46.667Z,20.90
2023-05-17T14:45:14.001Z,20.94
2023-05-17T14:47:40.812Z,20.99
2023-05-17T14:50:08.004Z,21.04
2023-05-17T14:52:35.018Z,21.11
2023-05-17T14:55:02.091Z,21.16
2023-05-17T14:57:28.665Z,21.22
2023-05-17T14:59:55.267Z,21.28
2023-05-17T15:02:21.864Z,21.35
2023-05-17T15:04:48.734Z,21.43
2023-05-17T15:07:15.447Z,21.48
2023-05-17T15:09:43.434Z,21.54
2023-05-17T15:12:13.102Z,21.60
2023-05-17T15:14:40.602Z,21.65
2023-05-17T15:17:07.420Z,21.71
2023-05-17T15:19:34.077Z,21.75
2023-05-17T15:22:01.822Z,21.79
2023-05-17T15:24:29.494Z,21.82
2023-05-17T15:26:56.198Z,21.86
2023-05-17T15:29:22.773Z,21.89
2023-05-17T15:31:49.319Z,21.93
2023-05-17T15:34:16.115Z,22.03
2023-05-17T15:36:42.867Z,22.01
2023-05-17T15:39:09.578Z,22.05
2023-05-17T15:44:02.726Z,22.05
2023-05-17T15:46:29.287Z,22.07
2023-05-17T15:48:56.639Z,22.08
2023-05-17T15:51:23.408Z,22.09
2023-05-17T15:53:50.034Z,22.10
2023-05-17T15:56:16.484Z,22.12
2023-05-17T15:58:43.004Z,22.13
2023-05-17T16:06:04.638Z,22.16
2023-05-17T16:08:31.615Z,22.18
2023-05-17T16:10:59.307Z,22.21
2023-05-17T16:13:26.970Z,22.22
2023-05-17T16:15:53.528Z,22.25
2023-05-17T16:18:20.197Z,22.26
2023-05-17T16:20:46.903Z,22.27
2023-05-17T16:25:38.814Z,22.29
2023-05-17T16:28:05.371Z,22.29
2023-05-17T16:30:32.073Z,22.32
2023-05-17T16:32:58.807Z,22.29
2023-05-17T16:35:25.702Z,22.28
2023-05-17T16:40:17.792Z,22.21
2023-05-17T16:42:44.754Z,22.20
2023-05-17T16:45:11.465Z,22.20
2023-05-17T16:47:38.233Z,22.20
2023-05-17T16:50:05.742Z,22.20
2023-05-17T16:52:32.294Z,22.18
2023-05-17T16:55:03.518Z,22.18
2023-05-17T16:57:31.809Z,22.17
2023-05-17T17:04:53.969Z,22.16
2023-05-17T17:07:20.799Z,22.14
2023-05-17T17:09:47.500Z,22.15
2023-05-17T17:12:24.241Z,22.11
2023-05-17T17:14:52.457Z,22.12
2023-05-17T17:17:18.978Z,22.13
2023-05-17T17:19:45.693Z,22.14
2023-05-17T17:22:14.237Z,22.14
2023-05-17T17:24:40.843Z,22.14
2023-05-17T17:27:07.442Z,22.15
2023-05-17T17:29:34.202Z,22.15
2023-05-17T17:32:00.867Z,22.16
2023-05-17T17:34:27.620Z,22.13
2023-05-17T17:36:54.433Z,22.10
2023-05-17T17:39:21.061Z,22.07
2023-05-17T17:41:47.707Z,22.07
2023-05-17T17:44:15.289Z,22.07
2023-05-17T17:46:42.528Z,22.06
2023-05-17T17:49:09.087Z,22.04
2023-05-17T17:51:35.692Z,22.03
2023-05-17T17:54:05.013Z,22.02
2023-05-17T17:56:32.877Z,22.02
2023-05-17T17:58:59.898Z,22.01
2023-05-17T18:01:26.838Z,22.01
2023-05-17T18:03:53.609Z,21.98
2023-05-17T18:06:20.439Z,21.97
2023-05-17T18:08:46.992Z,21.95
2023-05-17T18:11:14.304Z,21.94
2023-05-17T18:13:41.653Z,21.92
2023-05-17T18:16:08.553Z,21.91
2023-05-17T18:18:37.400Z,21.90
2023-05-17T18:21:04.707Z,21.87
2023-05-17T18:23:31.870Z,21.87
2023-05-17T18:25:58.948Z,21.85
2023-05-17T18:28:40.894Z,21.84
2023-05-17T18:31:09.423Z,21.82
2023-05-17T18:33:36.546Z,21.82
2023-05-17T18:36:03.570Z,21.82
2023-05-17T18:38:30.607Z,21.79
2023-05-17T18:40:57.965Z,21.78
2023-05-17T18:43:24.834Z,21.77
2023-05-17T18:45:51.818Z,21.76
2023-05-17T18:48:18.954Z,21.77
2023-05-17T18:50:46.277Z,21.70
2023-05-17T18:53:13.413Z,21.72
2023-05-17T18:55:41.418Z,21.73
2023-05-17T18:58:08.465Z,21.71
2023-05-17T19:00:35.576Z,21.71
2023-05-17T19:03:04.938Z,21.69
2023-05-17T19:05:32.050Z,21.65
2023-05-17T19:07:59.418Z,21.66
2023-05-17T19:10:26.761Z,21.62
2023-05-17T19:12:53.822Z,21.61
2023-05-17T19:15:21.454Z,21.61
2023-05-17T19:17:48.792Z,21.58
2023-05-17T19:20:16.219Z,21.62
2023-05-17T19:22:43.437Z,21.59
2023-05-17T19:25:10.691Z,21.58
2023-05-17T19:27:37.990Z,21.53
2023-05-17T19:30:06.480Z,21.53
2023-05-17T19:32:33.880Z,21.52
2023-05-17T19:35:01.894Z,21.48
2023-05-17T19:37:29.047Z,21.46
2023-05-17T19:39:56.317Z,21.45
2023-05-17T19:42:24.251Z,21.44
2023-05-17T19:44:51.216Z,21.42
2023-05-17T19:47:18.204Z,21.42
2023-05-17T19:49:45.137Z,21.41
2023-05-17T19:52:12.313Z,21.38
2023-05-17T19:54:39.437Z,21.37
2023-05-17T19:57:06.538Z,21.36
2023-05-17T19:59:33.864Z,21.35
2023-05-17T20:02:00.980Z,21.33
2023-05-17T20:04:28.162Z,21.35
2023-05-17T20:06:55.107Z,21.34
2023-05-17T20:09:22.216Z,21.34
2023-05-17T20:11:49.406Z,21.31
2023-05-17T20:14:16.465Z,21.32
2023-05-17T20:16:43.528Z,21.29
2023-05-17T20:19:11.129Z,21.27
2023-05-17T20:21:38.351Z,21.26
2023-05-17T20:24:07.155Z,21.26
2023-05-17T20:26:37.360Z,21.23
2023-05-17T20:29:07.541Z,21.23
2023-05-17T20:31:35.297Z,21.22
2023-05-17T20:34:02.510Z,21.23
2023-05-17T20:36:29.752Z,21.31
2023-05-17T20:38:56.689Z,21.32
2023-05-17T20:41:24.121Z,21.29
2023-05-17T20:43:51.981Z,21.22
2023-05-17T20:46:19.021Z,21.22
2023-05-17T20:48:48.401Z,21.22
2023-05-17T20:51:16.114Z,21.22
2023-05-17T20:53:43.284Z,21.24
2023-05-17T20:56:10.861Z,21.20
2023-05-17T20:58:37.744Z,21.21
2023-05-17T21:01:06.009Z,21.19
2023-05-17T21:03:34.361Z,21.18
2023-05-17T21:06:01.925Z,21.20
2023-05-17T21:08:28.950Z,21.19
2023-05-17T21:10:56.355Z,21.20
2023-05-17T21:13:25.787Z,21.18
2023-05-17T21:15:53.776Z,21.16
2023-05-17T21:18:21.259Z,21.15
2023-05-17T21:20:49.304Z,21.13
2023-05-17T21:23:16.162Z,21.15
2023-05-17T21:25:44.529Z,21.18
2023-05-17T21:28:11.446Z,21.18
2023-05-17T21:30:38.378Z,21.20
2023-05-17T21:33:05.785Z,21.23
2023-05-17T21:35:32.839Z,21.30
2023-05-17T21:37:59.705Z,21.34
2023-05-17T21:40:26.693Z,21.38
2023-05-17T21:42:53.624Z,21.41
2023-05-17T21:45:20.695Z,21.46
2023-05-17T21:47:48.843Z,21.50
2023-05-17T21:50:16.460Z,21.55
2023-05-17T21:52:44.970Z,21.60
2023-05-17T21:55:11.868Z,21.64
2023-05-17T21:57:38.782Z,21.68
2023-05-17T22:00:06.231Z,21.72
2023-05-17T22:02:34.209Z,21.76
2023-05-17T22:05:01.426Z,21.79
2023-05-17T22:07:28.408Z,21.83
2023-05-17T22:09:55.377Z,21.87
2023-05-17T22:12:25.765Z,21.90
2023-05-17T22:14:54.356Z,21.93
2023-05-17T22:17:29.542Z,21.95
2023-05-17T22:20:03.372Z,21.99
2023-05-17T22:22:32.017Z,22.00
2023-05-17T22:24:58.855Z,22.03
2023-05-17T22:27:25.775Z,22.06
2023-05-17T22:29:52.673Z,22.07
2023-05-17T22:32:19.525Z,22.09
2023-05-17T22:34:46.341Z,22.10
2023-05-17T22:37:13.219Z,22.13
2023-05-17T22:39:40.916Z,22.12
2023-05-17T22:42:08.398Z,22.16
2023-05-17T22:44:36.330Z,22.17
2023-05-17T22:47:04.869Z,22.18
2023-05-17T22:49:34.276Z,22.19
2023-05-17T22:52:04.649Z,22.19
2023-05-17T22:54:33.364Z,22.20
2023-05-17T22:57:01.042Z,22.22
2023-05-17T22:59:28.639Z,22.25
2023-05-17T23:01:55.764Z,22.24
2023-05-17T23:04:26.261Z,22.25
2023-05-17T23:06:54.110Z,22.25
2023-05-17T23:09:22.099Z,22.27
2023-05-17T23:11:50.186Z,22.27
2023-05-17T23:14:17.726Z,22.29
2023-05-17T23:16:44.848Z,22.28
2023-05-17T23:19:13.543Z,22.29
2023-05-17T23:21:40.388Z,22.29
2023-05-17T23:24:08.202Z,22.31
2023-05-17T23:26:35.325Z,22.32
2023-05-17T23:29:03.695Z,22.32
2023-05-17T23:31:30.510Z,22.32
2023-05-17T23:33:57.315Z,22.31
2023-05-17T23:36:24.120Z,22.31
2023-05-17T23:38:51.018Z,22.31
2023-05-17T23:41:19.919Z,22.31
2023-05-17T23:43:47.061Z,22.32
2023-05-17T23:46:13.923Z,22.32
2023-05-17T23:48:40.825Z,22.31
2023-05-17T23:51:08.037Z,22.31
2023-05-17T23:53:35.127Z,22.29
2023-05-17T23:56:02.136Z,22.30
2023-05-17T23:58:28.981Z,22.29
